createdAt,value
2022-10-31T00:00:23.910Z,1013.93
2022-10-31T00:01:23.834Z,1013.93
2022-10-31T00:02:23.898Z,1013.93
2022-10-31T00:03:23.820Z,1013.93
2022-10-31T00:04:23.801Z,1013.94
2022-10-31T00:05:23.800Z,1013.94
2022-10-31T00:06:23.780Z,1013.95
2022-10-31T00:07:23.769Z,1013.96
2022-10-31T00:08:23.776Z,1013.97
2022-10-31T00:09:23.756Z,1013.97
2022-10-31T00:10:23.742Z,1013.97
2022-10-31T00:11:23.731Z,1013.97
2022-10-31T00:12:23.717Z,1013.96
2022-10-31T00:13:23.840Z,1013.95
2022-10-31T00:14:23.699Z,1013.96
2022-10-31T00:15:23.685Z,1013.96
2022-10-31T00:16:23.721Z,1013.96
2022-10-31T00:17:23.657Z,1013.96
2022-10-31T00:18:23.677Z,1013.97
2022-10-31T00:19:23.642Z,1013.97
2022-10-31T00:20:23.636Z,1013.96
2022-10-31T00:21:23.618Z,1013.95
2022-10-31T00:22:23.651Z,1013.95
2022-10-31T00:23:23.610Z,1013.96
2022-10-31T00:24:23.662Z,1013.97
2022-10-31T00:25:23.583Z,1013.97
2022-10-31T00:26:23.573Z,1013.98
2022-10-31T00:27:23.583Z,1013.99
2022-10-31T00:28:23.561Z,1014.01
2022-10-31T00:29:23.537Z,1014.02
2022-10-31T00:30:23.532Z,1014.03
2022-10-31T00:31:23.517Z,1014.03
2022-10-31T00:32:23.514Z,1014.03
2022-10-31T00:33:23.502Z,1014.04
2022-10-31T00:34:23.487Z,1014.05
2022-10-31T00:35:23.483Z,1014.05
2022-10-31T00:36:23.479Z,1014.06
2022-10-31T00:37:23.448Z,1014.07
2022-10-31T00:38:23.458Z,1014.07
2022-10-31T00:39:23.469Z,1014.07
2022-10-31T00:40:23.430Z,1014.07
2022-10-31T00:41:23.411Z,1014.06
2022-10-31T00:42:23.414Z,1014.06
2022-10-31T00:43:23.399Z,1014.06
2022-10-31T00:44:23.384Z,1014.07
2022-10-31T00:45:23.367Z,1014.09
2022-10-31T00:46:23.366Z,1014.12
2022-10-31T00:47:23.405Z,1014.14
2022-10-31T00:48:23.357Z,1014.16
2022-10-31T00:49:23.328Z,1014.18
2022-10-31T00:50:23.330Z,1014.17
2022-10-31T00:51:23.356Z,1014.18
2022-10-31T00:52:23.303Z,1014.18
2022-10-31T00:53:23.342Z,1014.20
2022-10-31T00:54:23.298Z,1014.22
2022-10-31T00:55:23.268Z,1014.23
2022-10-31T00:56:23.262Z,1014.23
2022-10-31T00:57:23.250Z,1014.23
2022-10-31T00:58:23.247Z,1014.23
2022-10-31T00:59:23.227Z,1014.24
2022-10-31T01:00:23.219Z,1014.24
2022-10-31T01:01:23.400Z,1014.23
2022-10-31T01:02:23.316Z,1014.23
2022-10-31T01:03:23.193Z,1014.23
2022-10-31T01:04:23.175Z,1014.22
2022-10-31T01:05:23.160Z,1014.26
2022-10-31T01:06:23.154Z,1014.28
2022-10-31T01:07:23.146Z,1014.28
2022-10-31T01:08:23.163Z,1014.28
2022-10-31T01:09:23.123Z,1014.27
2022-10-31T01:10:23.109Z,1014.27
2022-10-31T01:11:23.094Z,1014.27
2022-10-31T01:12:23.113Z,1014.28
2022-10-31T01:13:23.096Z,1014.27
2022-10-31T01:14:23.106Z,1014.27
2022-10-31T01:15:23.055Z,1014.28
2022-10-31T01:16:23.045Z,1014.30
2022-10-31T01:17:23.037Z,1014.31
2022-10-31T01:18:23.042Z,1014.30
2022-10-31T01:19:23.015Z,1014.32
2022-10-31T01:20:23.007Z,1014.31
2022-10-31T01:21:22.990Z,1014.32
2022-10-31T01:22:22.987Z,1014.33
2022-10-31T01:23:23.036Z,1014.32
2022-10-31T01:24:22.980Z,1014.35
2022-10-31T01:25:22.949Z,1014.36
2022-10-31T01:26:22.946Z,1014.36
2022-10-31T01:27:22.924Z,1014.34
2022-10-31T01:28:23.066Z,1014.32
2022-10-31T01:29:22.914Z,1014.30
2022-10-31T01:30:22.921Z,1014.29
2022-10-31T01:31:22.900Z,1014.29
2022-10-31T01:32:22.882Z,1014.30
2022-10-31T01:33:22.876Z,1014.31
2022-10-31T01:34:22.863Z,1014.31
2022-10-31T01:35:22.849Z,1014.30
2022-10-31T01:36:22.891Z,1014.30
2022-10-31T01:37:22.824Z,1014.30
2022-10-31T01:38:22.835Z,1014.29
2022-10-31T01:39:22.801Z,1014.30
2022-10-31T01:40:22.802Z,1014.31
2022-10-31T01:41:22.780Z,1014.31
2022-10-31T01:42:22.782Z,1014.31
2022-10-31T01:43:22.802Z,1014.30
2022-10-31T01:44:22.753Z,1014.31
2022-10-31T01:45:22.743Z,1014.32
2022-10-31T01:46:22.732Z,1014.34
2022-10-31T01:47:22.724Z,1014.33
2022-10-31T01:48:22.728Z,1014.35
2022-10-31T01:49:22.701Z,1014.34
2022-10-31T01:50:22.701Z,1014.33
2022-10-31T01:51:22.719Z,1014.32
2022-10-31T01:52:22.721Z,1014.33
2022-10-31T01:53:25.970Z,1014.33
2022-10-31T01:54:22.694Z,1014.31
2022-10-31T01:55:25.209Z,1014.29
2022-10-31T01:56:22.656Z,1014.27
2022-10-31T01:57:22.641Z,1014.26
2022-10-31T01:58:22.617Z,1014.26
2022-10-31T01:59:22.599Z,1014.24
2022-10-31T02:00:22.597Z,1014.27
2022-10-31T02:01:22.720Z,1014.32
2022-10-31T02:02:22.668Z,1014.36
2022-10-31T02:03:22.556Z,1014.40
2022-10-31T02:04:22.553Z,1014.42
2022-10-31T02:05:22.530Z,1014.41
2022-10-31T02:06:28.553Z,1014.42
2022-10-31T02:07:22.536Z,1014.41
2022-10-31T02:08:22.507Z,1014.39
2022-10-31T02:09:23.147Z,1014.42
2022-10-31T02:10:22.498Z,1014.43
2022-10-31T02:11:22.490Z,1014.42
2022-10-31T02:12:22.480Z,1014.41
2022-10-31T02:13:22.489Z,1014.41
2022-10-31T02:14:22.447Z,1014.41
2022-10-31T02:15:22.439Z,1014.44
2022-10-31T02:16:22.420Z,1014.45
2022-10-31T02:17:22.425Z,1014.45
2022-10-31T02:18:22.401Z,1014.44
2022-10-31T02:19:22.389Z,1014.43
2022-10-31T02:20:22.380Z,1014.43
2022-10-31T02:21:22.371Z,1014.43
2022-10-31T02:22:22.377Z,1014.43
2022-10-31T02:23:22.353Z,1014.41
2022-10-31T02:24:22.346Z,1014.40
2022-10-31T02:25:22.328Z,1014.40
2022-10-31T02:26:22.319Z,1014.41
2022-10-31T02:27:22.326Z,1014.41
2022-10-31T02:28:22.302Z,1014.40
2022-10-31T02:29:22.293Z,1014.40
2022-10-31T02:30:22.280Z,1014.41
2022-10-31T02:31:22.259Z,1014.42
2022-10-31T02:32:22.271Z,1014.41
2022-10-31T02:33:22.246Z,1014.38
2022-10-31T02:34:22.235Z,1014.40
2022-10-31T02:35:22.218Z,1014.39
2022-10-31T02:36:22.216Z,1014.39
2022-10-31T02:37:22.223Z,1014.38
2022-10-31T02:38:22.192Z,1014.37
2022-10-31T02:39:22.186Z,1014.36
2022-10-31T02:40:22.175Z,1014.36
2022-10-31T02:41:22.153Z,1014.35
2022-10-31T02:42:22.162Z,1014.35
2022-10-31T02:43:22.137Z,1014.35
2022-10-31T02:44:22.135Z,1014.35
2022-10-31T02:45:22.113Z,1014.36
2022-10-31T02:46:22.114Z,1014.36
2022-10-31T02:47:22.103Z,1014.37
2022-10-31T02:48:22.092Z,1014.37
2022-10-31T02:49:22.072Z,1014.37
2022-10-31T02:50:22.075Z,1014.38
2022-10-31T02:51:22.053Z,1014.38
2022-10-31T02:52:22.060Z,1014.38
2022-10-31T02:53:22.032Z,1014.38
2022-10-31T02:54:22.024Z,1014.39
2022-10-31T02:55:22.017Z,1014.40
2022-10-31T02:56:22.004Z,1014.41
2022-10-31T02:57:22.009Z,1014.42
2022-10-31T02:58:21.992Z,1014.44
2022-10-31T02:59:21.971Z,1014.45
2022-10-31T03:00:21.964Z,1014.44
2022-10-31T03:01:22.033Z,1014.48
2022-10-31T03:02:22.183Z,1014.50
2022-10-31T03:03:21.938Z,1014.51
2022-10-31T03:04:21.924Z,1014.52
2022-10-31T03:05:21.908Z,1014.52
2022-10-31T03:06:21.900Z,1014.53
2022-10-31T03:07:21.904Z,1014.55
2022-10-31T03:08:21.882Z,1014.57
2022-10-31T03:09:21.872Z,1014.57
2022-10-31T03:10:21.864Z,1014.59
2022-10-31T03:11:21.848Z,1014.60
2022-10-31T03:12:21.841Z,1014.61
2022-10-31T03:13:24.871Z,1014.60
2022-10-31T03:14:21.813Z,1014.62
2022-10-31T03:15:21.808Z,1014.61
2022-10-31T03:16:21.807Z,1014.61
2022-10-31T03:17:21.798Z,1014.62
2022-10-31T03:18:21.773Z,1014.61
2022-10-31T03:19:21.768Z,1014.63
2022-10-31T03:20:21.759Z,1014.63
2022-10-31T03:21:21.754Z,1014.63
2022-10-31T03:22:21.725Z,1014.64
2022-10-31T03:23:21.728Z,1014.66
2022-10-31T03:24:21.709Z,1014.69
2022-10-31T03:25:21.719Z,1014.70
2022-10-31T03:26:21.696Z,1014.71
2022-10-31T03:27:21.686Z,1014.71
2022-10-31T03:28:21.667Z,1014.72
2022-10-31T03:29:21.661Z,1014.73
2022-10-31T03:30:21.650Z,1014.73
2022-10-31T03:31:21.651Z,1014.72
2022-10-31T03:32:21.624Z,1014.73
2022-10-31T03:33:21.618Z,1014.74
2022-10-31T03:34:21.601Z,1014.78
2022-10-31T03:35:21.624Z,1014.80
2022-10-31T03:36:21.593Z,1014.82
2022-10-31T03:37:21.648Z,1014.81
2022-10-31T03:38:21.561Z,1014.81
2022-10-31T03:39:21.559Z,1014.81
2022-10-31T03:40:21.544Z,1014.81
2022-10-31T03:41:21.546Z,1014.81
2022-10-31T03:42:21.561Z,1014.81
2022-10-31T03:44:21.521Z,1014.85
2022-10-31T03:45:21.492Z,1014.88
2022-10-31T03:46:21.489Z,1014.91
2022-10-31T03:47:21.473Z,1014.93
2022-10-31T03:48:21.456Z,1014.95
2022-10-31T03:49:21.458Z,1014.97
2022-10-31T03:50:21.446Z,1014.98
2022-10-31T03:51:21.609Z,1014.99
2022-10-31T03:52:21.417Z,1014.99
2022-10-31T03:53:21.423Z,1015.00
2022-10-31T03:54:21.398Z,1014.99
2022-10-31T03:55:21.405Z,1014.99
2022-10-31T03:56:21.384Z,1015.00
2022-10-31T03:57:21.368Z,1014.99
2022-10-31T03:58:21.589Z,1015.01
2022-10-31T03:59:21.354Z,1015.02
2022-10-31T04:00:21.589Z,1015.02
2022-10-31T04:01:21.494Z,1015.02
2022-10-31T04:02:21.485Z,1015.03
2022-10-31T04:03:21.305Z,1015.02
2022-10-31T04:04:21.304Z,1015.00
2022-10-31T04:05:21.286Z,1014.99
2022-10-31T04:06:21.280Z,1014.98
2022-10-31T04:07:21.271Z,1014.98
2022-10-31T04:08:21.398Z,1014.99
2022-10-31T04:09:21.253Z,1015.00
2022-10-31T04:10:21.225Z,1015.00
2022-10-31T04:11:21.248Z,1015.01
2022-10-31T04:12:21.216Z,1015.01
2022-10-31T04:13:21.215Z,1015.02
2022-10-31T04:14:21.188Z,1015.02
2022-10-31T04:15:21.180Z,1015.03
2022-10-31T04:16:21.176Z,1015.03
2022-10-31T04:17:21.167Z,1015.04
2022-10-31T04:18:21.147Z,1015.06
2022-10-31T04:19:21.142Z,1015.06
2022-10-31T04:20:21.129Z,1015.07
2022-10-31T04:21:21.136Z,1015.07
2022-10-31T04:22:21.104Z,1015.09
2022-10-31T04:23:21.096Z,1015.10
2022-10-31T04:24:21.083Z,1015.10
2022-10-31T04:25:21.074Z,1015.11
2022-10-31T04:26:21.072Z,1015.12
2022-10-31T04:27:21.068Z,1015.13
2022-10-31T04:28:21.050Z,1015.14
2022-10-31T04:29:21.038Z,1015.15
2022-10-31T04:30:21.051Z,1015.15
2022-10-31T04:31:21.030Z,1015.14
2022-10-31T04:32:21.012Z,1015.16
2022-10-31T04:33:20.996Z,1015.16
2022-10-31T04:34:20.987Z,1015.16
2022-10-31T04:35:20.977Z,1015.16
2022-10-31T04:36:20.979Z,1015.15
2022-10-31T04:37:20.954Z,1015.16
2022-10-31T04:38:20.933Z,1015.15
2022-10-31T04:39:24.271Z,1015.16
2022-10-31T04:40:20.923Z,1015.17
2022-10-31T04:41:20.946Z,1015.17
2022-10-31T04:42:20.977Z,1015.18
2022-10-31T04:44:20.873Z,1015.21
2022-10-31T04:45:21.459Z,1015.21
2022-10-31T04:46:20.865Z,1015.22
2022-10-31T04:47:20.849Z,1015.21
2022-10-31T04:48:20.845Z,1015.22
2022-10-31T04:49:20.983Z,1015.20
2022-10-31T04:50:20.809Z,1015.21
2022-10-31T04:51:20.811Z,1015.25
2022-10-31T04:52:20.798Z,1015.26
2022-10-31T04:53:20.795Z,1015.27
2022-10-31T04:54:20.787Z,1015.28
2022-10-31T04:55:20.769Z,1015.26
2022-10-31T04:56:20.772Z,1015.25
2022-10-31T04:57:20.739Z,1015.24
2022-10-31T04:58:20.744Z,1015.23
2022-10-31T04:59:20.722Z,1015.22
2022-10-31T05:00:20.730Z,1015.23
2022-10-31T05:01:20.820Z,1015.21
2022-10-31T05:02:20.715Z,1015.21
2022-10-31T05:03:20.688Z,1015.21
2022-10-31T05:04:20.673Z,1015.21
2022-10-31T05:05:20.662Z,1015.21
2022-10-31T05:06:20.663Z,1015.20
2022-10-31T05:07:20.651Z,1015.21
2022-10-31T05:08:20.625Z,1015.20
2022-10-31T05:09:20.616Z,1015.22
2022-10-31T05:10:20.603Z,1015.23
2022-10-31T05:11:20.611Z,1015.23
2022-10-31T05:12:20.591Z,1015.26
2022-10-31T05:14:20.561Z,1015.29
2022-10-31T05:15:20.557Z,1015.29
2022-10-31T05:16:20.589Z,1015.30
2022-10-31T05:17:20.535Z,1015.31
2022-10-31T05:18:20.522Z,1015.32
2022-10-31T05:19:20.527Z,1015.30
2022-10-31T05:20:20.494Z,1015.31
2022-10-31T05:21:20.506Z,1015.32
2022-10-31T05:22:20.479Z,1015.32
2022-10-31T05:23:20.479Z,1015.32
2022-10-31T05:24:20.461Z,1015.30
2022-10-31T05:25:20.563Z,1015.33
2022-10-31T05:26:20.406Z,1015.33
2022-10-31T05:27:20.383Z,1015.34
2022-10-31T05:28:20.419Z,1015.35
2022-10-31T05:29:20.418Z,1015.36
2022-10-31T05:30:20.403Z,1015.36
2022-10-31T05:31:20.359Z,1015.37
2022-10-31T05:32:20.372Z,1015.37
2022-10-31T05:33:20.334Z,1015.39
2022-10-31T05:34:20.297Z,1015.41
2022-10-31T05:35:20.291Z,1015.43
2022-10-31T05:36:20.286Z,1015.43
2022-10-31T05:37:20.274Z,1015.44
2022-10-31T05:38:20.259Z,1015.44
2022-10-31T05:39:20.252Z,1015.45
2022-10-31T05:40:20.242Z,1015.46
2022-10-31T05:41:20.243Z,1015.46
2022-10-31T05:42:20.230Z,1015.45
2022-10-31T05:43:20.209Z,1015.46
2022-10-31T05:44:20.196Z,1015.45
2022-10-31T05:45:20.185Z,1015.43
2022-10-31T05:46:20.257Z,1015.43
2022-10-31T05:47:20.171Z,1015.44
2022-10-31T05:48:20.157Z,1015.45
2022-10-31T05:49:20.147Z,1015.44
2022-10-31T05:50:20.157Z,1015.44
2022-10-31T05:51:20.122Z,1015.43
2022-10-31T05:52:20.121Z,1015.45
2022-10-31T05:53:20.105Z,1015.45
2022-10-31T05:54:20.096Z,1015.46
2022-10-31T05:55:20.109Z,1015.47
2022-10-31T05:56:20.078Z,1015.47
2022-10-31T05:57:20.063Z,1015.48
2022-10-31T05:58:20.050Z,1015.49
2022-10-31T05:59:20.040Z,1015.50
2022-10-31T06:00:20.044Z,1015.49
2022-10-31T06:01:20.095Z,1015.50
2022-10-31T06:02:20.042Z,1015.50
2022-10-31T06:03:20.002Z,1015.51
2022-10-31T06:04:20.083Z,1015.51
2022-10-31T06:05:19.995Z,1015.52
2022-10-31T06:06:19.973Z,1015.52
2022-10-31T06:07:19.973Z,1015.54
2022-10-31T06:08:19.942Z,1015.55
2022-10-31T06:09:19.936Z,1015.56
2022-10-31T06:10:19.932Z,1015.56
2022-10-31T06:11:19.942Z,1015.57
2022-10-31T06:12:19.926Z,1015.57
2022-10-31T06:13:19.926Z,1015.58
2022-10-31T06:14:19.894Z,1015.59
2022-10-31T06:15:23.803Z,1015.59
2022-10-31T06:16:19.873Z,1015.60
2022-10-31T06:17:19.860Z,1015.61
2022-10-31T06:18:19.840Z,1015.62
2022-10-31T06:19:19.851Z,1015.63
2022-10-31T06:20:19.820Z,1015.63
2022-10-31T06:21:19.823Z,1015.64
2022-10-31T06:22:19.811Z,1015.64
2022-10-31T06:23:19.793Z,1015.64
2022-10-31T06:24:19.784Z,1015.65
2022-10-31T06:25:19.787Z,1015.65
2022-10-31T06:26:19.772Z,1015.64
2022-10-31T06:27:19.751Z,1015.66
2022-10-31T06:28:19.750Z,1015.66
2022-10-31T06:29:19.741Z,1015.67
2022-10-31T06:30:19.733Z,1015.68
2022-10-31T06:31:19.712Z,1015.69
2022-10-31T06:32:19.695Z,1015.70
2022-10-31T06:33:19.698Z,1015.70
2022-10-31T06:34:19.684Z,1015.71
2022-10-31T06:35:19.699Z,1015.72
2022-10-31T06:36:19.727Z,1015.73
2022-10-31T06:37:19.656Z,1015.75
2022-10-31T06:38:19.649Z,1015.77
2022-10-31T06:39:19.654Z,1015.78
2022-10-31T06:40:19.633Z,1015.79
2022-10-31T06:41:19.612Z,1015.80
2022-10-31T06:42:19.601Z,1015.79
2022-10-31T06:43:19.590Z,1015.83
2022-10-31T06:44:19.571Z,1015.85
2022-10-31T06:45:19.571Z,1015.85
2022-10-31T06:46:19.548Z,1015.86
2022-10-31T06:47:19.546Z,1015.87
2022-10-31T06:48:19.866Z,1015.89
2022-10-31T06:49:19.525Z,1015.90
2022-10-31T06:50:19.523Z,1015.91
2022-10-31T06:51:19.504Z,1015.92
2022-10-31T06:52:19.500Z,1015.94
2022-10-31T06:53:19.478Z,1015.95
2022-10-31T06:54:19.461Z,1015.97
2022-10-31T06:55:19.469Z,1015.99
2022-10-31T06:56:19.450Z,1016.00
2022-10-31T06:57:19.434Z,1016.02
2022-10-31T06:58:19.428Z,1016.01
2022-10-31T06:59:19.419Z,1016.02
2022-10-31T07:00:19.426Z,1016.03
2022-10-31T07:01:19.549Z,1016.03
2022-10-31T07:02:19.451Z,1016.04
2022-10-31T07:03:19.384Z,1016.03
2022-10-31T07:04:19.362Z,1016.05
2022-10-31T07:05:19.384Z,1016.05
2022-10-31T07:06:19.339Z,1016.04
2022-10-31T07:07:19.337Z,1016.03
2022-10-31T07:08:19.325Z,1016.04
2022-10-31T07:09:19.345Z,1016.03
2022-10-31T07:10:19.311Z,1016.03
2022-10-31T07:11:19.292Z,1016.04
2022-10-31T07:12:19.282Z,1016.12
2022-10-31T07:13:19.289Z,1016.12
2022-10-31T07:14:19.259Z,1016.11
2022-10-31T07:15:19.266Z,1016.12
2022-10-31T07:16:19.253Z,1016.11
2022-10-31T07:17:19.233Z,1016.13
2022-10-31T07:18:19.220Z,1016.10
2022-10-31T07:19:19.215Z,1016.07
2022-10-31T07:20:19.207Z,1016.08
2022-10-31T07:21:19.182Z,1016.09
2022-10-31T07:22:19.193Z,1016.09
2022-10-31T07:23:19.172Z,1016.09
2022-10-31T07:24:19.161Z,1016.12
2022-10-31T07:25:19.156Z,1016.12
2022-10-31T07:26:19.137Z,1016.11
2022-10-31T07:27:19.138Z,1016.12
2022-10-31T07:28:19.121Z,1016.14
2022-10-31T07:29:19.097Z,1016.15
2022-10-31T07:30:19.109Z,1016.14
2022-10-31T07:31:19.077Z,1016.14
2022-10-31T07:32:19.101Z,1016.14
2022-10-31T07:33:19.061Z,1016.13
2022-10-31T07:34:19.051Z,1016.14
2022-10-31T07:35:19.057Z,1016.12
2022-10-31T07:36:19.030Z,1016.11
2022-10-31T07:37:19.031Z,1016.14
2022-10-31T07:38:19.035Z,1016.14
2022-10-31T07:39:19.059Z,1016.13
2022-10-31T07:40:19.014Z,1016.15
2022-10-31T07:41:18.973Z,1016.16
2022-10-31T07:42:18.992Z,1016.19
2022-10-31T07:43:18.952Z,1016.19
2022-10-31T07:44:18.945Z,1016.20
2022-10-31T07:45:18.947Z,1016.19
2022-10-31T07:46:18.936Z,1016.22
2022-10-31T07:47:18.916Z,1016.23
2022-10-31T07:48:18.905Z,1016.22
2022-10-31T07:49:18.890Z,1016.24
2022-10-31T07:50:18.898Z,1016.25
2022-10-31T07:51:18.869Z,1016.27
2022-10-31T07:52:18.873Z,1016.29
2022-10-31T07:53:18.852Z,1016.28
2022-10-31T07:54:18.838Z,1016.32
2022-10-31T07:55:18.848Z,1016.32
2022-10-31T07:56:18.818Z,1016.34
2022-10-31T07:57:21.476Z,1016.33
2022-10-31T07:58:18.807Z,1016.33
2022-10-31T07:59:18.794Z,1016.33
2022-10-31T08:00:18.835Z,1016.32
2022-10-31T08:01:18.769Z,1016.33
2022-10-31T08:02:18.760Z,1016.35
2022-10-31T08:03:18.761Z,1016.38
2022-10-31T08:04:18.750Z,1016.40
2022-10-31T08:05:18.742Z,1016.43
2022-10-31T08:06:18.733Z,1016.46
2022-10-31T08:07:25.474Z,1016.46
2022-10-31T08:08:18.697Z,1016.46
2022-10-31T08:09:20.294Z,1016.47
2022-10-31T08:10:18.697Z,1016.49
2022-10-31T08:11:18.660Z,1016.49
2022-10-31T08:12:18.664Z,1016.50
2022-10-31T08:13:18.640Z,1016.48
2022-10-31T08:14:18.642Z,1016.48
2022-10-31T08:15:18.636Z,1016.47
2022-10-31T08:16:18.615Z,1016.46
2022-10-31T08:17:18.598Z,1016.47
2022-10-31T08:18:18.601Z,1016.47
2022-10-31T08:19:18.584Z,1016.46
2022-10-31T08:20:18.598Z,1016.46
2022-10-31T08:21:18.559Z,1016.48
2022-10-31T08:22:18.556Z,1016.48
2022-10-31T08:23:18.536Z,1016.49
2022-10-31T08:24:18.534Z,1016.49
2022-10-31T08:25:18.538Z,1016.49
2022-10-31T08:26:18.515Z,1016.49
2022-10-31T08:27:18.493Z,1016.50
2022-10-31T08:28:18.514Z,1016.49
2022-10-31T08:29:18.483Z,1016.50
2022-10-31T08:30:18.487Z,1016.50
2022-10-31T08:31:18.471Z,1016.51
2022-10-31T08:32:18.449Z,1016.51
2022-10-31T08:33:18.447Z,1016.51
2022-10-31T08:34:18.430Z,1016.53
2022-10-31T08:35:18.489Z,1016.56
2022-10-31T08:36:18.407Z,1016.56
2022-10-31T08:37:18.396Z,1016.58
2022-10-31T08:38:18.391Z,1016.60
2022-10-31T08:39:18.413Z,1016.61
2022-10-31T08:40:18.384Z,1016.62
2022-10-31T08:41:18.350Z,1016.63
2022-10-31T08:42:18.350Z,1016.63
2022-10-31T08:43:18.350Z,1016.63
2022-10-31T08:44:18.427Z,1016.61
2022-10-31T08:45:18.407Z,1016.63
2022-10-31T08:46:18.300Z,1016.64
2022-10-31T08:47:18.285Z,1016.65
2022-10-31T08:48:18.296Z,1016.66
2022-10-31T08:49:18.285Z,1016.66
2022-10-31T08:50:18.283Z,1016.64
2022-10-31T08:51:18.254Z,1016.61
2022-10-31T08:52:18.240Z,1016.59
2022-10-31T08:53:18.233Z,1016.57
2022-10-31T08:54:18.220Z,1016.55
2022-10-31T08:55:18.329Z,1016.54
2022-10-31T08:56:18.219Z,1016.53
2022-10-31T08:57:18.182Z,1016.52
2022-10-31T08:58:18.191Z,1016.53
2022-10-31T08:59:18.158Z,1016.53
2022-10-31T09:00:18.177Z,1016.51
2022-10-31T09:01:18.282Z,1016.49
2022-10-31T09:02:18.175Z,1016.48
2022-10-31T09:03:18.139Z,1016.47
2022-10-31T09:04:18.131Z,1016.48
2022-10-31T09:05:18.129Z,1016.50
2022-10-31T09:06:18.130Z,1016.52
2022-10-31T09:07:21.786Z,1016.56
2022-10-31T09:08:18.078Z,1016.58
2022-10-31T09:09:18.075Z,1016.59
2022-10-31T09:10:18.094Z,1016.58
2022-10-31T09:11:18.036Z,1016.59
2022-10-31T09:12:18.096Z,1016.61
2022-10-31T09:13:18.020Z,1016.62
2022-10-31T09:14:18.013Z,1016.63
2022-10-31T09:15:18.036Z,1016.63
2022-10-31T09:16:18.006Z,1016.64
2022-10-31T09:17:17.986Z,1016.64
2022-10-31T09:18:17.974Z,1016.65
2022-10-31T09:19:17.952Z,1016.66
2022-10-31T09:20:17.961Z,1016.69
2022-10-31T09:21:17.941Z,1016.71
2022-10-31T09:22:17.959Z,1016.74
2022-10-31T09:23:17.915Z,1016.76
2022-10-31T09:24:17.909Z,1016.78
2022-10-31T09:25:17.908Z,1016.81
2022-10-31T09:26:17.892Z,1016.81
2022-10-31T09:27:17.882Z,1016.82
2022-10-31T09:28:17.871Z,1016.81
2022-10-31T09:29:17.855Z,1016.80
2022-10-31T09:30:17.883Z,1016.79
2022-10-31T09:31:17.891Z,1016.78
2022-10-31T09:32:17.840Z,1016.79
2022-10-31T09:33:17.833Z,1016.79
2022-10-31T09:34:17.811Z,1016.80
2022-10-31T09:35:20.394Z,1016.81
2022-10-31T09:36:17.795Z,1016.81
2022-10-31T09:37:17.770Z,1016.81
2022-10-31T09:38:17.771Z,1016.81
2022-10-31T09:39:17.756Z,1016.82
2022-10-31T09:40:17.761Z,1016.83
2022-10-31T09:41:17.734Z,1016.84
2022-10-31T09:42:17.719Z,1016.84
2022-10-31T09:43:17.707Z,1016.82
2022-10-31T09:44:17.700Z,1016.80
2022-10-31T09:45:17.707Z,1016.78
2022-10-31T09:46:17.686Z,1016.78
2022-10-31T09:47:17.713Z,1016.80
2022-10-31T09:48:17.663Z,1016.82
2022-10-31T09:49:17.719Z,1016.86
2022-10-31T09:50:17.652Z,1016.88
2022-10-31T09:51:17.629Z,1016.89
2022-10-31T09:52:17.621Z,1016.89
2022-10-31T09:53:17.633Z,1016.91
2022-10-31T09:54:17.599Z,1016.92
2022-10-31T09:55:17.662Z,1016.93
2022-10-31T09:56:17.594Z,1016.92
2022-10-31T09:57:17.569Z,1016.93
2022-10-31T09:58:17.560Z,1016.93
2022-10-31T09:59:17.544Z,1016.92
2022-10-31T10:00:17.560Z,1016.93
2022-10-31T10:01:17.654Z,1016.93
2022-10-31T10:02:17.619Z,1016.92
2022-10-31T10:03:17.507Z,1016.92
2022-10-31T10:04:20.749Z,1016.93
2022-10-31T10:05:17.500Z,1016.93
2022-10-31T10:06:17.488Z,1016.94
2022-10-31T10:07:17.490Z,1016.91
2022-10-31T10:08:17.532Z,1016.89
2022-10-31T10:09:17.511Z,1016.87
2022-10-31T10:10:17.486Z,1016.87
2022-10-31T10:11:17.427Z,1016.87
2022-10-31T10:12:17.423Z,1016.88
2022-10-31T10:13:17.402Z,1016.89
2022-10-31T10:14:17.403Z,1016.90
2022-10-31T10:15:17.393Z,1016.91
2022-10-31T10:16:17.372Z,1016.90
2022-10-31T10:17:17.362Z,1016.89
2022-10-31T10:18:17.348Z,1016.87
2022-10-31T10:19:17.350Z,1016.84
2022-10-31T10:20:20.856Z,1016.80
2022-10-31T10:21:17.322Z,1016.77
2022-10-31T10:22:17.329Z,1016.75
2022-10-31T10:23:17.296Z,1016.74
2022-10-31T10:24:17.315Z,1016.74
2022-10-31T10:25:17.307Z,1016.74
2022-10-31T10:26:17.384Z,1016.74
2022-10-31T10:27:20.652Z,1016.74
2022-10-31T10:28:17.263Z,1016.73
2022-10-31T10:29:17.233Z,1016.72
2022-10-31T10:30:17.246Z,1016.71
2022-10-31T10:31:17.223Z,1016.70
2022-10-31T10:32:17.212Z,1016.69
2022-10-31T10:33:17.191Z,1016.70
2022-10-31T10:34:17.200Z,1016.70
2022-10-31T10:35:17.211Z,1016.70
2022-10-31T10:36:17.172Z,1016.69
2022-10-31T10:37:17.157Z,1016.68
2022-10-31T10:38:17.147Z,1016.68
2022-10-31T10:39:17.139Z,1016.67
2022-10-31T10:40:17.159Z,1016.67
2022-10-31T10:41:17.129Z,1016.67
2022-10-31T10:42:17.115Z,1016.67
2022-10-31T10:43:17.099Z,1016.66
2022-10-31T10:44:17.080Z,1016.65
2022-10-31T10:45:17.085Z,1016.62
2022-10-31T10:46:17.072Z,1016.59
2022-10-31T10:47:17.058Z,1016.58
2022-10-31T10:48:17.057Z,1016.55
2022-10-31T10:49:17.038Z,1016.56
2022-10-31T10:50:17.041Z,1016.55
2022-10-31T10:51:25.754Z,1016.54
2022-10-31T10:52:40.401Z,1016.53
2022-10-31T10:53:16.997Z,1016.52
2022-10-31T10:54:16.981Z,1016.52
2022-10-31T10:55:16.985Z,1016.53
2022-10-31T10:56:16.968Z,1016.55
2022-10-31T10:57:16.941Z,1016.57
2022-10-31T10:58:16.943Z,1016.57
2022-10-31T10:59:16.934Z,1016.58
2022-10-31T11:00:16.952Z,1016.58
2022-10-31T11:01:16.923Z,1016.59
2022-10-31T11:02:16.897Z,1016.60
2022-10-31T11:03:16.877Z,1016.60
2022-10-31T11:04:16.890Z,1016.60
2022-10-31T11:05:16.867Z,1016.60
2022-10-31T11:06:16.858Z,1016.58
2022-10-31T11:07:16.841Z,1016.58
2022-10-31T11:08:16.845Z,1016.57
2022-10-31T11:09:16.821Z,1016.56
2022-10-31T11:10:16.837Z,1016.56
2022-10-31T11:11:16.796Z,1016.56
2022-10-31T11:12:16.807Z,1016.55
2022-10-31T11:13:16.802Z,1016.55
2022-10-31T11:14:16.792Z,1016.53
2022-10-31T11:15:16.816Z,1016.52
2022-10-31T11:16:16.770Z,1016.51
2022-10-31T11:17:16.766Z,1016.51
2022-10-31T11:18:16.773Z,1016.51
2022-10-31T11:19:16.715Z,1016.51
2022-10-31T11:20:19.043Z,1016.50
2022-10-31T11:21:16.696Z,1016.49
2022-10-31T11:22:16.691Z,1016.48
2022-10-31T11:23:16.707Z,1016.46
2022-10-31T11:24:16.672Z,1016.45
2022-10-31T11:25:16.674Z,1016.43
2022-10-31T11:26:16.659Z,1016.42
2022-10-31T11:27:16.633Z,1016.40
2022-10-31T11:28:16.642Z,1016.38
2022-10-31T11:29:16.632Z,1016.36
2022-10-31T11:30:16.631Z,1016.35
2022-10-31T11:31:16.598Z,1016.34
2022-10-31T11:32:16.596Z,1016.33
2022-10-31T11:33:16.590Z,1016.34
2022-10-31T11:34:16.564Z,1016.35
2022-10-31T11:35:16.572Z,1016.35
2022-10-31T11:36:16.555Z,1016.35
2022-10-31T11:37:16.571Z,1016.35
2022-10-31T11:38:16.539Z,1016.35
2022-10-31T11:39:16.538Z,1016.34
2022-10-31T11:40:16.563Z,1016.33
2022-10-31T11:41:16.513Z,1016.32
2022-10-31T11:42:16.476Z,1016.31
2022-10-31T11:43:16.484Z,1016.31
2022-10-31T11:44:16.456Z,1016.30
2022-10-31T11:45:16.478Z,1016.30
2022-10-31T11:46:16.453Z,1016.31
2022-10-31T11:47:16.434Z,1016.32
2022-10-31T11:48:16.437Z,1016.31
2022-10-31T11:49:16.428Z,1016.31
2022-10-31T11:50:16.482Z,1016.30
2022-10-31T11:51:16.402Z,1016.29
2022-10-31T11:52:16.377Z,1016.29
2022-10-31T11:53:16.366Z,1016.29
2022-10-31T11:54:16.359Z,1016.31
2022-10-31T11:55:16.408Z,1016.31
2022-10-31T11:56:16.377Z,1016.32
2022-10-31T11:57:16.326Z,1016.33
2022-10-31T11:58:16.316Z,1016.34
2022-10-31T11:59:16.310Z,1016.33
2022-10-31T12:00:16.451Z,1016.33
2022-10-31T12:01:16.299Z,1016.32
2022-10-31T12:02:16.361Z,1016.31
2022-10-31T12:03:16.284Z,1016.30
2022-10-31T12:04:16.247Z,1016.29
2022-10-31T12:05:16.306Z,1016.28
2022-10-31T12:06:16.229Z,1016.27
2022-10-31T12:07:16.230Z,1016.26
2022-10-31T12:08:16.212Z,1016.25